sensor_id;sensor_type;location;lat;lon;timestamp;P1;durP1;ratioP1;P2;durP2;ratioP2
61250;SDS011;47126;47.508;8.590;2023-04-30T00:01:01;12.95;;;7.57;;
61250;SDS011;47126;47.508;8.590;2023-04-30T00:03:28;13.63;;;7.10;;
61250;SDS011;47126;47.508;8.590;2023-04-30T00:05:54;13.23;;;7.30;;
61250;SDS011;47126;47.508;8.590;2023-04-30T00:08:19;15.63;;;7.93;;
61250;SDS011;47126;47.508;8.590;2023-04-30T00:10:46;15.43;;;7.82;;
61250;SDS011;47126;47.508;8.590;2023-04-30T00:13:11;17.95;;;8.38;;
61250;SDS011;47126;47.508;8.590;2023-04-30T00:15:38;13.95;;;7.82;;
61250;SDS011;47126;47.508;8.590;2023-04-30T00:18:05;13.73;;;7.35;;
61250;SDS011;47126;47.508;8.590;2023-04-30T00:20:31;12.32;;;7.60;;
61250;SDS011;47126;47.508;8.590;2023-04-30T00:22:59;13.25;;;7.85;;
61250;SDS011;47126;47.508;8.590;2023-04-30T00:25:25;14.73;;;8.23;;
61250;SDS011;47126;47.508;8.590;2023-04-30T00:27:51;13.43;;;7.80;;
61250;SDS011;47126;47.508;8.590;2023-04-30T00:30:17;17.77;;;7.82;;
61250;SDS011;47126;47.508;8.590;2023-04-30T00:32:43;17.08;;;8.45;;
61250;SDS011;47126;47.508;8.590;2023-04-30T00:35:10;15.27;;;7.60;;
61250;SDS011;47126;47.508;8.590;2023-04-30T00:37:36;15.85;;;8.45;;
61250;SDS011;47126;47.508;8.590;2023-04-30T00:40:02;14.40;;;7.57;;
61250;SDS011;47126;47.508;8.590;2023-04-30T00:42:28;15.00;;;7.55;;
61250;SDS011;47126;47.508;8.590;2023-04-30T00:44:54;15.18;;;8.20;;
61250;SDS011;47126;47.508;8.590;2023-04-30T00:47:20;14.52;;;8.13;;
61250;SDS011;47126;47.508;8.590;2023-04-30T00:49:46;15.98;;;7.85;;
61250;SDS011;47126;47.508;8.590;2023-04-30T00:52:12;17.67;;;7.57;;
61250;SDS011;47126;47.508;8.590;2023-04-30T00:54:38;16.83;;;8.25;;
61250;SDS011;47126;47.508;8.590;2023-04-30T00:57:05;17.58;;;7.93;;
61250;SDS011;47126;47.508;8.590;2023-04-30T00:59:32;13.02;;;7.15;;
61250;SDS011;47126;47.508;8.590;2023-04-30T01:01:58;15.20;;;7.65;;
61250;SDS011;47126;47.508;8.590;2023-04-30T01:04:24;14.77;;;7.90;;
61250;SDS011;47126;47.508;8.590;2023-04-30T01:06:50;14.27;;;7.40;;
61250;SDS011;47126;47.508;8.590;2023-04-30T01:09:16;15.52;;;7.95;;
61250;SDS011;47126;47.508;8.590;2023-04-30T01:14:36;14.85;;;8.30;;
61250;SDS011;47126;47.508;8.590;2023-04-30T01:21:52;16.15;;;7.82;;
61250;SDS011;47126;47.508;8.590;2023-04-30T01:27:12;17.33;;;7.88;;
61250;SDS011;47126;47.508;8.590;2023-04-30T01:29:45;15.77;;;7.47;;
61250;SDS011;47126;47.508;8.590;2023-04-30T01:32:11;20.00;;;8.05;;
61250;SDS011;47126;47.508;8.590;2023-04-30T01:34:37;15.50;;;8.27;;
61250;SDS011;47126;47.508;8.590;2023-04-30T01:39:44;16.20;;;8.73;;
61250;SDS011;47126;47.508;8.590;2023-04-30T01:42:20;17.20;;;7.18;;
61250;SDS011;47126;47.508;8.590;2023-04-30T01:50:19;15.88;;;8.77;;
61250;SDS011;47126;47.508;8.590;2023-04-30T01:52:49;15.25;;;8.10;;
61250;SDS011;47126;47.508;8.590;2023-04-30T01:55:17;15.98;;;7.63;;
61250;SDS011;47126;47.508;8.590;2023-04-30T01:58:08;18.20;;;8.30;;
61250;SDS011;47126;47.508;8.590;2023-04-30T02:00:31;16.08;;;7.03;;
61250;SDS011;47126;47.508;8.590;2023-04-30T02:02:58;15.35;;;7.53;;
61250;SDS011;47126;47.508;8.590;2023-04-30T02:05:24;16.30;;;7.90;;
61250;SDS011;47126;47.508;8.590;2023-04-30T02:07:50;17.30;;;8.40;;
61250;SDS011;47126;47.508;8.590;2023-04-30T02:10:17;16.40;;;8.13;;
61250;SDS011;47126;47.508;8.590;2023-04-30T02:12:43;16.13;;;8.00;;
61250;SDS011;47126;47.508;8.590;2023-04-30T02:15:09;15.65;;;7.95;;
61250;SDS011;47126;47.508;8.590;2023-04-30T02:17:36;15.38;;;7.45;;
61250;SDS011;47126;47.508;8.590;2023-04-30T02:20:02;14.25;;;7.28;;
61250;SDS011;47126;47.508;8.590;2023-04-30T02:22:28;14.70;;;7.32;;
61250;SDS011;47126;47.508;8.590;2023-04-30T02:24:54;13.90;;;7.65;;
61250;SDS011;47126;47.508;8.590;2023-04-30T02:27:22;16.25;;;7.45;;
61250;SDS011;47126;47.508;8.590;2023-04-30T02:29:48;14.23;;;7.63;;
61250;SDS011;47126;47.508;8.590;2023-04-30T02:32:15;13.75;;;7.00;;
61250;SDS011;47126;47.508;8.590;2023-04-30T02:34:41;17.52;;;7.88;;
61250;SDS011;47126;47.508;8.590;2023-04-30T02:37:07;18.48;;;7.65;;
61250;SDS011;47126;47.508;8.590;2023-04-30T02:39:33;15.13;;;6.80;;
61250;SDS011;47126;47.508;8.590;2023-04-30T02:41:59;12.70;;;6.60;;
61250;SDS011;47126;47.508;8.590;2023-04-30T02:44:25;17.48;;;6.82;;
61250;SDS011;47126;47.508;8.590;2023-04-30T02:46:51;14.38;;;7.25;;
61250;SDS011;47126;47.508;8.590;2023-04-30T02:49:17;14.30;;;6.95;;
61250;SDS011;47126;47.508;8.590;2023-04-30T02:51:43;13.80;;;7.18;;
61250;SDS011;47126;47.508;8.590;2023-04-30T02:54:09;14.65;;;7.38;;
61250;SDS011;47126;47.508;8.590;2023-04-30T02:56:35;14.45;;;7.35;;
61250;SDS011;47126;47.508;8.590;2023-04-30T02:59:02;13.35;;;7.85;;
61250;SDS011;47126;47.508;8.590;2023-04-30T03:01:28;15.43;;;7.13;;
61250;SDS011;47126;47.508;8.590;2023-04-30T03:03:54;14.43;;;6.78;;
61250;SDS011;47126;47.508;8.590;2023-04-30T03:06:20;16.27;;;7.82;;
61250;SDS011;47126;47.508;8.590;2023-04-30T03:08:46;14.73;;;7.53;;
61250;SDS011;47126;47.508;8.590;2023-04-30T03:11:12;13.95;;;7.22;;
61250;SDS011;47126;47.508;8.590;2023-04-30T03:13:38;14.07;;;7.53;;
61250;SDS011;47126;47.508;8.590;2023-04-30T03:16:05;12.98;;;6.60;;
61250;SDS011;47126;47.508;8.590;2023-04-30T03:18:31;12.68;;;6.85;;
61250;SDS011;47126;47.508;8.590;2023-04-30T03:20:57;14.55;;;7.43;;
61250;SDS011;47126;47.508;8.590;2023-04-30T03:23:25;14.02;;;7.00;;
61250;SDS011;47126;47.508;8.590;2023-04-30T03:25:51;15.23;;;7.97;;
61250;SDS011;47126;47.508;8.590;2023-04-30T03:28:17;15.48;;;7.93;;
61250;SDS011;47126;47.508;8.590;2023-04-30T03:30:43;13.43;;;6.90;;
61250;SDS011;47126;47.508;8.590;2023-04-30T03:33:09;15.65;;;7.55;;
61250;SDS011;47126;47.508;8.590;2023-04-30T03:35:35;13.48;;;6.78;;
61250;SDS011;47126;47.508;8.590;2023-04-30T03:38:01;15.88;;;7.95;;
61250;SDS011;47126;47.508;8.590;2023-04-30T03:40:28;13.93;;;7.00;;
61250;SDS011;47126;47.508;8.590;2023-04-30T03:42:54;14.13;;;7.53;;
61250;SDS011;47126;47.508;8.590;2023-04-30T03:45:20;12.93;;;7.25;;
61250;SDS011;47126;47.508;8.590;2023-04-30T03:47:46;14.77;;;7.93;;
61250;SDS011;47126;47.508;8.590;2023-04-30T03:50:12;14.35;;;6.80;;
61250;SDS011;47126;47.508;8.590;2023-04-30T03:52:38;14.65;;;7.57;;
61250;SDS011;47126;47.508;8.590;2023-04-30T03:55:05;15.25;;;7.40;;
61250;SDS011;47126;47.508;8.590;2023-04-30T03:57:31;16.77;;;7.65;;
61250;SDS011;47126;47.508;8.590;2023-04-30T03:59:57;17.13;;;7.90;;
61250;SDS011;47126;47.508;8.590;2023-04-30T04:02:23;16.38;;;7.97;;
61250;SDS011;47126;47.508;8.590;2023-04-30T04:04:50;18.33;;;8.52;;
61250;SDS011;47126;47.508;8.590;2023-04-30T04:07:16;16.58;;;8.32;;
61250;SDS011;47126;47.508;8.590;2023-04-30T04:09:43;15.52;;;7.20;;
61250;SDS011;47126;47.508;8.590;2023-04-30T04:12:09;15.07;;;7.78;;
61250;SDS011;47126;47.508;8.590;2023-04-30T04:14:35;20.98;;;8.15;;
61250;SDS011;47126;47.508;8.590;2023-04-30T04:17:01;15.93;;;8.05;;
61250;SDS011;47126;47.508;8.590;2023-04-30T04:19:29;12.35;;;7.05;;
61250;SDS011;47126;47.508;8.590;2023-04-30T04:21:55;16.80;;;8.35;;
61250;SDS011;47126;47.508;8.590;2023-04-30T04:24:23;16.05;;;8.20;;
61250;SDS011;47126;47.508;8.590;2023-04-30T04:26:49;13.93;;;7.32;;
61250;SDS011;47126;47.508;8.590;2023-04-30T04:29:16;14.88;;;7.68;;
61250;SDS011;47126;47.508;8.590;2023-04-30T04:31:42;15.73;;;7.35;;
61250;SDS011;47126;47.508;8.590;2023-04-30T04:34:08;15.48;;;7.50;;
61250;SDS011;47126;47.508;8.590;2023-04-30T04:36:34;13.32;;;6.28;;
61250;SDS011;47126;47.508;8.590;2023-04-30T04:39:00;12.60;;;7.25;;
61250;SDS011;47126;47.508;8.590;2023-04-30T04:41:30;14.25;;;7.10;;
61250;SDS011;47126;47.508;8.590;2023-04-30T04:43:56;14.13;;;7.60;;
61250;SDS011;47126;47.508;8.590;2023-04-30T04:46:23;15.07;;;7.50;;
61250;SDS011;47126;47.508;8.590;2023-04-30T04:48:49;13.48;;;6.57;;
61250;SDS011;47126;47.508;8.590;2023-04-30T04:51:15;14.23;;;6.82;;
61250;SDS011;47126;47.508;8.590;2023-04-30T04:53:41;11.68;;;6.50;;
61250;SDS011;47126;47.508;8.590;2023-04-30T04:56:07;12.23;;;6.65;;
61250;SDS011;47126;47.508;8.590;2023-04-30T04:58:33;15.93;;;6.47;;
61250;SDS011;47126;47.508;8.590;2023-04-30T05:00:59;12.70;;;6.78;;
61250;SDS011;47126;47.508;8.590;2023-04-30T05:03:26;13.85;;;6.72;;
61250;SDS011;47126;47.508;8.590;2023-04-30T05:05:52;16.48;;;7.20;;
61250;SDS011;47126;47.508;8.590;2023-04-30T05:08:18;13.15;;;6.55;;
61250;SDS011;47126;47.508;8.590;2023-04-30T05:10:44;13.48;;;6.90;;
61250;SDS011;47126;47.508;8.590;2023-04-30T05:13:10;13.52;;;6.85;;
61250;SDS011;47126;47.508;8.590;2023-04-30T05:15:36;13.63;;;6.40;;
61250;SDS011;47126;47.508;8.590;2023-04-30T05:18:02;12.13;;;7.05;;
61250;SDS011;47126;47.508;8.590;2023-04-30T05:20:28;13.07;;;7.03;;
61250;SDS011;47126;47.508;8.590;2023-04-30T05:22:54;13.45;;;6.70;;
61250;SDS011;47126;47.508;8.590;2023-04-30T05:25:20;13.00;;;7.05;;
61250;SDS011;47126;47.508;8.590;2023-04-30T05:27:46;14.40;;;7.00;;
61250;SDS011;47126;47.508;8.590;2023-04-30T05:30:12;14.88;;;7.13;;
61250;SDS011;47126;47.508;8.590;2023-04-30T05:32:39;12.85;;;7.07;;
61250;SDS011;47126;47.508;8.590;2023-04-30T05:35:05;13.70;;;6.65;;
61250;SDS011;47126;47.508;8.590;2023-04-30T05:37:31;13.27;;;7.35;;
61250;SDS011;47126;47.508;8.590;2023-04-30T05:39:57;12.43;;;6.78;;
61250;SDS011;47126;47.508;8.590;2023-04-30T05:42:23;15.00;;;6.60;;
61250;SDS011;47126;47.508;8.590;2023-04-30T05:44:49;12.20;;;6.50;;
61250;SDS011;47126;47.508;8.590;2023-04-30T05:47:15;11.93;;;6.28;;
61250;SDS011;47126;47.508;8.590;2023-04-30T05:49:41;10.38;;;5.95;;
61250;SDS011;47126;47.508;8.590;2023-04-30T05:52:07;14.57;;;7.15;;
61250;SDS011;47126;47.508;8.590;2023-04-30T05:54:33;11.63;;;6.43;;
61250;SDS011;47126;47.508;8.590;2023-04-30T05:57:00;11.20;;;6.50;;
61250;SDS011;47126;47.508;8.590;2023-04-30T05:59:26;14.07;;;6.93;;
61250;SDS011;47126;47.508;8.590;2023-04-30T06:01:52;12.27;;;6.75;;
61250;SDS011;47126;47.508;8.590;2023-04-30T06:04:18;14.82;;;7.28;;
61250;SDS011;47126;47.508;8.590;2023-04-30T06:06:44;11.20;;;6.45;;
61250;SDS011;47126;47.508;8.590;2023-04-30T06:09:10;12.38;;;6.55;;
61250;SDS011;47126;47.508;8.590;2023-04-30T06:11:36;11.57;;;6.75;;
61250;SDS011;47126;47.508;8.590;2023-04-30T06:14:02;15.30;;;6.75;;
61250;SDS011;47126;47.508;8.590;2023-04-30T06:16:28;11.52;;;6.30;;
61250;SDS011;47126;47.508;8.590;2023-04-30T06:18:55;12.23;;;6.47;;
61250;SDS011;47126;47.508;8.590;2023-04-30T06:21:21;12.15;;;6.72;;
61250;SDS011;47126;47.508;8.590;2023-04-30T06:23:50;12.02;;;6.35;;
61250;SDS011;47126;47.508;8.590;2023-04-30T06:26:16;15.93;;;7.13;;
61250;SDS011;47126;47.508;8.590;2023-04-30T06:28:42;12.65;;;7.25;;
61250;SDS011;47126;47.508;8.590;2023-04-30T06:31:08;11.77;;;6.80;;
61250;SDS011;47126;47.508;8.590;2023-04-30T06:33:34;12.98;;;6.93;;
61250;SDS011;47126;47.508;8.590;2023-04-30T06:36:00;13.27;;;6.65;;
61250;SDS011;47126;47.508;8.590;2023-04-30T06:38:26;11.45;;;6.50;;
61250;SDS011;47126;47.508;8.590;2023-04-30T06:40:52;12.23;;;7.35;;
61250;SDS011;47126;47.508;8.590;2023-04-30T06:43:18;11.02;;;5.85;;
61250;SDS011;47126;47.508;8.590;2023-04-30T06:45:44;13.45;;;6.90;;
61250;SDS011;47126;47.508;8.590;2023-04-30T06:48:10;13.23;;;6.78;;
61250;SDS011;47126;47.508;8.590;2023-04-30T06:50:36;13.48;;;6.32;;
61250;SDS011;47126;47.508;8.590;2023-04-30T06:53:08;10.90;;;6.00;;
61250;SDS011;47126;47.508;8.590;2023-04-30T06:55:37;10.65;;;6.50;;
61250;SDS011;47126;47.508;8.590;2023-04-30T06:58:03;11.82;;;6.47;;
61250;SDS011;47126;47.508;8.590;2023-04-30T07:00:30;11.13;;;6.07;;
61250;SDS011;47126;47.508;8.590;2023-04-30T07:02:56;10.65;;;6.40;;
61250;SDS011;47126;47.508;8.590;2023-04-30T07:05:24;11.73;;;6.82;;
61250;SDS011;47126;47.508;8.590;2023-04-30T07:07:50;9.85;;;5.97;;
61250;SDS011;47126;47.508;8.590;2023-04-30T07:10:17;12.18;;;7.10;;
61250;SDS011;47126;47.508;8.590;2023-04-30T07:12:43;11.93;;;6.88;;
61250;SDS011;47126;47.508;8.590;2023-04-30T07:15:09;11.75;;;7.35;;
61250;SDS011;47126;47.508;8.590;2023-04-30T07:17:35;11.60;;;7.13;;
61250;SDS011;47126;47.508;8.590;2023-04-30T07:20:02;10.90;;;6.53;;
61250;SDS011;47126;47.508;8.590;2023-04-30T07:22:28;11.63;;;6.70;;
61250;SDS011;47126;47.508;8.590;2023-04-30T07:24:55;14.27;;;7.15;;
61250;SDS011;47126;47.508;8.590;2023-04-30T07:27:21;9.65;;;5.93;;
61250;SDS011;47126;47.508;8.590;2023-04-30T07:29:47;11.05;;;6.78;;
61250;SDS011;47126;47.508;8.590;2023-04-30T07:32:13;11.77;;;6.90;;
61250;SDS011;47126;47.508;8.590;2023-04-30T07:34:40;10.90;;;6.40;;
61250;SDS011;47126;47.508;8.590;2023-04-30T07:37:06;9.70;;;5.97;;
61250;SDS011;47126;47.508;8.590;2023-04-30T07:39:33;9.75;;;5.93;;
61250;SDS011;47126;47.508;8.590;2023-04-30T07:41:59;11.73;;;6.40;;
61250;SDS011;47126;47.508;8.590;2023-04-30T07:44:27;11.02;;;6.43;;
61250;SDS011;47126;47.508;8.590;2023-04-30T07:46:53;10.45;;;6.68;;
61250;SDS011;47126;47.508;8.590;2023-04-30T07:49:19;12.65;;;7.35;;
61250;SDS011;47126;47.508;8.590;2023-04-30T07:51:45;10.98;;;7.13;;
61250;SDS011;47126;47.508;8.590;2023-04-30T07:54:11;11.63;;;6.72;;
61250;SDS011;47126;47.508;8.590;2023-04-30T07:56:37;10.60;;;6.47;;
61250;SDS011;47126;47.508;8.590;2023-04-30T07:59:03;11.52;;;6.95;;
61250;SDS011;47126;47.508;8.590;2023-04-30T08:01:30;12.98;;;7.35;;
61250;SDS011;47126;47.508;8.590;2023-04-30T08:03:56;13.77;;;7.93;;
61250;SDS011;47126;47.508;8.590;2023-04-30T08:06:22;11.10;;;6.97;;
61250;SDS011;47126;47.508;8.590;2023-04-30T08:08:48;12.27;;;7.07;;
61250;SDS011;47126;47.508;8.590;2023-04-30T08:11:14;10.88;;;6.60;;
61250;SDS011;47126;47.508;8.590;2023-04-30T08:13:40;12.70;;;6.80;;
61250;SDS011;47126;47.508;8.590;2023-04-30T08:16:06;10.73;;;6.65;;
61250;SDS011;47126;47.508;8.590;2023-04-30T08:18:32;11.77;;;6.75;;
61250;SDS011;47126;47.508;8.590;2023-04-30T08:20:59;11.98;;;7.88;;
61250;SDS011;47126;47.508;8.590;2023-04-30T08:23:25;15.10;;;7.55;;
61250;SDS011;47126;47.508;8.590;2023-04-30T08:25:51;10.20;;;6.72;;
61250;SDS011;47126;47.508;8.590;2023-04-30T08:28:17;10.95;;;7.00;;
61250;SDS011;47126;47.508;8.590;2023-04-30T08:30:43;10.25;;;6.90;;
61250;SDS011;47126;47.508;8.590;2023-04-30T08:33:10;10.32;;;6.93;;
61250;SDS011;47126;47.508;8.590;2023-04-30T08:35:36;12.63;;;7.40;;
61250;SDS011;47126;47.508;8.590;2023-04-30T08:38:02;11.75;;;7.90;;
61250;SDS011;47126;47.508;8.590;2023-04-30T08:40:28;13.52;;;7.97;;
61250;SDS011;47126;47.508;8.590;2023-04-30T08:43:05;12.23;;;7.10;;
61250;SDS011;47126;47.508;8.590;2023-04-30T08:45:34;10.68;;;6.82;;
61250;SDS011;47126;47.508;8.590;2023-04-30T08:48:01;13.45;;;7.05;;
61250;SDS011;47126;47.508;8.590;2023-04-30T08:50:28;12.90;;;7.97;;
61250;SDS011;47126;47.508;8.590;2023-04-30T08:52:54;11.52;;;7.35;;
61250;SDS011;47126;47.508;8.590;2023-04-30T08:55:20;11.25;;;6.22;;
61250;SDS011;47126;47.508;8.590;2023-04-30T08:57:46;12.27;;;7.38;;
61250;SDS011;47126;47.508;8.590;2023-04-30T09:00:12;10.32;;;6.60;;
61250;SDS011;47126;47.508;8.590;2023-04-30T09:02:41;12.52;;;7.28;;
61250;SDS011;47126;47.508;8.590;2023-04-30T09:05:11;11.30;;;7.25;;
61250;SDS011;47126;47.508;8.590;2023-04-30T09:07:39;14.27;;;7.82;;
61250;SDS011;47126;47.508;8.590;2023-04-30T09:10:13;11.73;;;7.30;;
61250;SDS011;47126;47.508;8.590;2023-04-30T09:12:40;11.75;;;7.75;;
61250;SDS011;47126;47.508;8.590;2023-04-30T09:15:09;11.15;;;6.93;;
61250;SDS011;47126;47.508;8.590;2023-04-30T09:17:36;15.25;;;7.80;;
61250;SDS011;47126;47.508;8.590;2023-04-30T09:22:32;10.23;;;6.45;;
61250;SDS011;47126;47.508;8.590;2023-04-30T09:24:58;10.07;;;5.93;;
61250;SDS011;47126;47.508;8.590;2023-04-30T09:27:24;9.60;;;5.63;;
61250;SDS011;47126;47.508;8.590;2023-04-30T09:29:50;9.18;;;5.55;;
61250;SDS011;47126;47.508;8.590;2023-04-30T09:32:16;10.38;;;6.50;;
61250;SDS011;47126;47.508;8.590;2023-04-30T09:34:43;10.45;;;6.45;;
61250;SDS011;47126;47.508;8.590;2023-04-30T09:37:09;9.35;;;6.20;;
61250;SDS011;47126;47.508;8.590;2023-04-30T09:39:45;10.75;;;6.15;;
61250;SDS011;47126;47.508;8.590;2023-04-30T09:42:12;10.82;;;5.40;;
61250;SDS011;47126;47.508;8.590;2023-04-30T09:44:38;8.02;;;5.35;;
61250;SDS011;47126;47.508;8.590;2023-04-30T09:47:14;8.85;;;5.38;;
61250;SDS011;47126;47.508;8.590;2023-04-30T09:49:41;8.40;;;5.40;;
61250;SDS011;47126;47.508;8.590;2023-04-30T09:52:08;9.80;;;5.30;;
61250;SDS011;47126;47.508;8.590;2023-04-30T09:54:38;9.43;;;6.15;;
61250;SDS011;47126;47.508;8.590;2023-04-30T09:57:05;7.13;;;5.17;;
61250;SDS011;47126;47.508;8.590;2023-04-30T09:59:35;7.60;;;4.93;;
61250;SDS011;47126;47.508;8.590;2023-04-30T10:02:03;7.10;;;4.88;;
61250;SDS011;47126;47.508;8.590;2023-04-30T10:04:33;8.00;;;5.10;;
61250;SDS011;47126;47.508;8.590;2023-04-30T10:07:19;8.65;;;5.15;;
61250;SDS011;47126;47.508;8.590;2023-04-30T10:09:49;9.52;;;4.80;;
61250;SDS011;47126;47.508;8.590;2023-04-30T10:12:18;8.60;;;4.97;;
61250;SDS011;47126;47.508;8.590;2023-04-30T10:14:47;6.78;;;4.40;;
61250;SDS011;47126;47.508;8.590;2023-04-30T10:17:15;6.85;;;4.03;;
61250;SDS011;47126;47.508;8.590;2023-04-30T10:19:45;6.30;;;4.28;;
61250;SDS011;47126;47.508;8.590;2023-04-30T10:22:11;5.70;;;3.83;;
61250;SDS011;47126;47.508;8.590;2023-04-30T10:24:37;9.40;;;4.82;;
61250;SDS011;47126;47.508;8.590;2023-04-30T10:27:03;5.13;;;3.33;;
61250;SDS011;47126;47.508;8.590;2023-04-30T10:29:29;9.15;;;3.47;;
61250;SDS011;47126;47.508;8.590;2023-04-30T10:31:55;6.63;;;3.40;;
61250;SDS011;47126;47.508;8.590;2023-04-30T10:37:10;4.97;;;3.35;;
61250;SDS011;47126;47.508;8.590;2023-04-30T10:39:38;8.85;;;3.35;;
61250;SDS011;47126;47.508;8.590;2023-04-30T10:42:04;4.78;;;3.17;;
61250;SDS011;47126;47.508;8.590;2023-04-30T10:44:37;6.63;;;2.92;;
61250;SDS011;47126;47.508;8.590;2023-04-30T10:47:03;5.93;;;3.20;;
61250;SDS011;47126;47.508;8.590;2023-04-30T10:49:30;4.38;;;2.78;;
61250;SDS011;47126;47.508;8.590;2023-04-30T10:52:02;4.38;;;2.70;;
61250;SDS011;47126;47.508;8.590;2023-04-30T10:54:34;5.28;;;3.30;;
61250;SDS011;47126;47.508;8.590;2023-04-30T10:57:14;4.85;;;3.10;;
61250;SDS011;47126;47.508;8.590;2023-04-30T10:59:42;7.45;;;3.47;;
61250;SDS011;47126;47.508;8.590;2023-04-30T11:02:12;5.30;;;3.03;;
61250;SDS011;47126;47.508;8.590;2023-04-30T11:10:36;4.60;;;2.95;;
61250;SDS011;47126;47.508;8.590;2023-04-30T11:13:05;5.18;;;3.10;;
61250;SDS011;47126;47.508;8.590;2023-04-30T11:15:38;4.15;;;2.88;;
61250;SDS011;47126;47.508;8.590;2023-04-30T11:18:06;4.82;;;2.75;;
61250;SDS011;47126;47.508;8.590;2023-04-30T11:20:32;4.85;;;2.90;;
61250;SDS011;47126;47.508;8.590;2023-04-30T11:23:08;4.90;;;3.00;;
61250;SDS011;47126;47.508;8.590;2023-04-30T11:25:43;4.50;;;3.10;;
61250;SDS011;47126;47.508;8.590;2023-04-30T11:28:13;5.78;;;3.03;;
61250;SDS011;47126;47.508;8.590;2023-04-30T11:30:49;4.90;;;2.80;;
61250;SDS011;47126;47.508;8.590;2023-04-30T11:33:15;5.78;;;3.10;;
61250;SDS011;47126;47.508;8.590;2023-04-30T11:35:41;4.05;;;2.65;;
61250;SDS011;47126;47.508;8.590;2023-04-30T11:38:08;3.92;;;2.80;;
61250;SDS011;47126;47.508;8.590;2023-04-30T11:40:36;5.00;;;3.22;;
61250;SDS011;47126;47.508;8.590;2023-04-30T11:43:03;4.60;;;2.50;;
61250;SDS011;47126;47.508;8.590;2023-04-30T11:45:29;4.13;;;2.60;;
61250;SDS011;47126;47.508;8.590;2023-04-30T11:47:55;5.47;;;3.28;;
61250;SDS011;47126;47.508;8.590;2023-04-30T11:50:22;6.13;;;3.20;;
61250;SDS011;47126;47.508;8.590;2023-04-30T11:52:53;5.05;;;3.13;;
61250;SDS011;47126;47.508;8.590;2023-04-30T11:55:20;5.38;;;2.75;;
61250;SDS011;47126;47.508;8.590;2023-04-30T11:57:47;7.13;;;2.80;;
61250;SDS011;47126;47.508;8.590;2023-04-30T12:00:18;5.82;;;2.92;;
61250;SDS011;47126;47.508;8.590;2023-04-30T12:02:45;4.57;;;3.10;;
61250;SDS011;47126;47.508;8.590;2023-04-30T12:05:15;5.13;;;3.17;;
61250;SDS011;47126;47.508;8.590;2023-04-30T12:07:45;6.23;;;3.13;;
61250;SDS011;47126;47.508;8.590;2023-04-30T12:10:11;4.65;;;2.60;;
61250;SDS011;47126;47.508;8.590;2023-04-30T12:12:37;3.45;;;2.53;;
61250;SDS011;47126;47.508;8.590;2023-04-30T12:15:10;3.78;;;2.80;;
61250;SDS011;47126;47.508;8.590;2023-04-30T12:17:36;4.78;;;2.75;;
61250;SDS011;47126;47.508;8.590;2023-04-30T12:20:02;4.15;;;3.00;;
61250;SDS011;47126;47.508;8.590;2023-04-30T12:22:29;4.53;;;2.88;;
61250;SDS011;47126;47.508;8.590;2023-04-30T12:24:55;5.60;;;3.13;;
61250;SDS011;47126;47.508;8.590;2023-04-30T12:27:21;3.53;;;2.63;;
61250;SDS011;47126;47.508;8.590;2023-04-30T12:29:47;4.88;;;3.03;;
61250;SDS011;47126;47.508;8.590;2023-04-30T12:32:16;5.18;;;3.10;;
61250;SDS011;47126;47.508;8.590;2023-04-30T12:34:43;3.67;;;2.65;;
61250;SDS011;47126;47.508;8.590;2023-04-30T12:37:09;5.20;;;2.72;;
61250;SDS011;47126;47.508;8.590;2023-04-30T12:39:36;5.53;;;3.03;;
61250;SDS011;47126;47.508;8.590;2023-04-30T12:42:02;3.60;;;2.70;;
61250;SDS011;47126;47.508;8.590;2023-04-30T12:44:28;4.15;;;2.70;;
61250;SDS011;47126;47.508;8.590;2023-04-30T12:46:55;4.07;;;2.70;;
61250;SDS011;47126;47.508;8.590;2023-04-30T12:49:32;3.80;;;2.33;;
61250;SDS011;47126;47.508;8.590;2023-04-30T12:51:59;5.30;;;3.08;;
61250;SDS011;47126;47.508;8.590;2023-04-30T12:54:26;4.47;;;2.83;;
61250;SDS011;47126;47.508;8.590;2023-04-30T12:59:28;4.93;;;2.90;;
61250;SDS011;47126;47.508;8.590;2023-04-30T13:01:54;4.35;;;2.92;;
61250;SDS011;47126;47.508;8.590;2023-04-30T13:04:20;5.25;;;2.80;;
61250;SDS011;47126;47.508;8.590;2023-04-30T13:06:47;3.53;;;2.50;;
61250;SDS011;47126;47.508;8.590;2023-04-30T13:09:13;3.85;;;2.50;;
61250;SDS011;47126;47.508;8.590;2023-04-30T13:11:40;4.07;;;2.55;;
61250;SDS011;47126;47.508;8.590;2023-04-30T13:14:05;4.05;;;2.40;;
61250;SDS011;47126;47.508;8.590;2023-04-30T13:16:34;3.83;;;2.50;;
61250;SDS011;47126;47.508;8.590;2023-04-30T13:19:00;4.72;;;2.90;;
61250;SDS011;47126;47.508;8.590;2023-04-30T13:21:26;2.97;;;2.20;;
61250;SDS011;47126;47.508;8.590;2023-04-30T13:23:52;4.20;;;2.50;;
61250;SDS011;47126;47.508;8.590;2023-04-30T13:26:18;4.50;;;2.40;;
61250;SDS011;47126;47.508;8.590;2023-04-30T13:28:45;3.78;;;2.60;;
61250;SDS011;47126;47.508;8.590;2023-04-30T13:31:11;4.57;;;2.40;;
61250;SDS011;47126;47.508;8.590;2023-04-30T13:33:37;3.13;;;2.38;;
61250;SDS011;47126;47.508;8.590;2023-04-30T13:36:03;4.25;;;2.50;;
61250;SDS011;47126;47.508;8.590;2023-04-30T13:38:29;3.50;;;2.30;;
61250;SDS011;47126;47.508;8.590;2023-04-30T13:40:55;3.67;;;2.50;;
61250;SDS011;47126;47.508;8.590;2023-04-30T13:43:21;4.10;;;2.67;;
61250;SDS011;47126;47.508;8.590;2023-04-30T13:45:47;2.95;;;2.30;;
61250;SDS011;47126;47.508;8.590;2023-04-30T13:48:12;5.78;;;2.58;;
61250;SDS011;47126;47.508;8.590;2023-04-30T13:50:38;3.25;;;2.20;;
61250;SDS011;47126;47.508;8.590;2023-04-30T13:53:04;3.90;;;2.45;;
61250;SDS011;47126;47.508;8.590;2023-04-30T13:55:30;4.70;;;2.30;;
61250;SDS011;47126;47.508;8.590;2023-04-30T13:57:57;4.35;;;2.40;;
61250;SDS011;47126;47.508;8.590;2023-04-30T14:00:23;3.17;;;2.25;;
61250;SDS011;47126;47.508;8.590;2023-04-30T14:02:50;3.13;;;2.33;;
61250;SDS011;47126;47.508;8.590;2023-04-30T14:05:16;5.78;;;2.50;;
61250;SDS011;47126;47.508;8.590;2023-04-30T14:07:42;4.28;;;2.70;;
61250;SDS011;47126;47.508;8.590;2023-04-30T14:10:08;3.33;;;2.40;;
61250;SDS011;47126;47.508;8.590;2023-04-30T14:12:34;4.47;;;2.42;;
61250;SDS011;47126;47.508;8.590;2023-04-30T14:15:02;3.58;;;2.40;;
61250;SDS011;47126;47.508;8.590;2023-04-30T14:17:28;5.40;;;2.45;;
61250;SDS011;47126;47.508;8.590;2023-04-30T14:19:55;4.88;;;2.38;;
61250;SDS011;47126;47.508;8.590;2023-04-30T14:22:21;4.38;;;2.45;;
61250;SDS011;47126;47.508;8.590;2023-04-30T14:24:48;5.53;;;2.40;;
61250;SDS011;47126;47.508;8.590;2023-04-30T14:27:14;3.70;;;2.65;;
61250;SDS011;47126;47.508;8.590;2023-04-30T14:29:40;3.35;;;2.53;;
61250;SDS011;47126;47.508;8.590;2023-04-30T14:32:06;5.03;;;2.40;;
61250;SDS011;47126;47.508;8.590;2023-04-30T14:34:32;3.53;;;2.20;;
61250;SDS011;47126;47.508;8.590;2023-04-30T14:36:58;7.07;;;2.38;;
61250;SDS011;47126;47.508;8.590;2023-04-30T14:39:25;3.58;;;2.10;;
61250;SDS011;47126;47.508;8.590;2023-04-30T14:41:52;3.53;;;2.25;;
61250;SDS011;47126;47.508;8.590;2023-04-30T14:44:18;5.80;;;2.53;;
61250;SDS011;47126;47.508;8.590;2023-04-30T14:46:45;3.28;;;2.33;;
61250;SDS011;47126;47.508;8.590;2023-04-30T14:49:11;3.22;;;2.30;;
61250;SDS011;47126;47.508;8.590;2023-04-30T14:51:37;3.63;;;2.53;;
61250;SDS011;47126;47.508;8.590;2023-04-30T14:54:03;5.13;;;3.20;;
61250;SDS011;47126;47.508;8.590;2023-04-30T14:56:29;4.88;;;2.65;;
61250;SDS011;47126;47.508;8.590;2023-04-30T14:58:55;3.85;;;2.53;;
61250;SDS011;47126;47.508;8.590;2023-04-30T15:01:21;4.88;;;2.78;;
61250;SDS011;47126;47.508;8.590;2023-04-30T15:03:47;8.82;;;4.72;;
61250;SDS011;47126;47.508;8.590;2023-04-30T15:06:13;12.02;;;6.32;;
61250;SDS011;47126;47.508;8.590;2023-04-30T15:08:39;5.70;;;3.67;;